sensor_id;sensor_type;location;lat;lon;timestamp;P1;durP1;ratioP1;P2;durP2;ratioP2
53521;SDS011;39398;48.382;9.802;2024-01-25T00:01:14;16.85;;;3.17;;
53521;SDS011;39398;48.382;9.802;2024-01-25T00:06:16;18.08;;;3.50;;
53521;SDS011;39398;48.382;9.802;2024-01-25T00:11:19;21.73;;;3.83;;
53521;SDS011;39398;48.382;9.802;2024-01-25T00:16:21;16.88;;;3.60;;
53521;SDS011;39398;48.382;9.802;2024-01-25T00:21:23;18.10;;;3.90;;
53521;SDS011;39398;48.382;9.802;2024-01-25T00:26:25;19.17;;;3.45;;
53521;SDS011;39398;48.382;9.802;2024-01-25T00:31:27;17.33;;;3.03;;
53521;SDS011;39398;48.382;9.802;2024-01-25T00:36:29;16.73;;;3.42;;
53521;SDS011;39398;48.382;9.802;2024-01-25T00:41:33;18.67;;;2.78;;
53521;SDS011;39398;48.382;9.802;2024-01-25T00:46:36;18.42;;;3.13;;
53521;SDS011;39398;48.382;9.802;2024-01-25T00:51:38;10.18;;;2.88;;
53521;SDS011;39398;48.382;9.802;2024-01-25T00:56:48;15.98;;;2.65;;
53521;SDS011;39398;48.382;9.802;2024-01-25T01:01:51;14.23;;;2.80;;
53521;SDS011;39398;48.382;9.802;2024-01-25T01:06:54;15.25;;;3.17;;
53521;SDS011;39398;48.382;9.802;2024-01-25T01:11:58;16.83;;;3.53;;
53521;SDS011;39398;48.382;9.802;2024-01-25T01:17:00;13.20;;;2.90;;
53521;SDS011;39398;48.382;9.802;2024-01-25T01:22:02;12.43;;;2.58;;
53521;SDS011;39398;48.382;9.802;2024-01-25T01:27:05;13.95;;;2.63;;
53521;SDS011;39398;48.382;9.802;2024-01-25T01:32:07;13.98;;;2.53;;
53521;SDS011;39398;48.382;9.802;2024-01-25T01:37:09;11.93;;;2.67;;
53521;SDS011;39398;48.382;9.802;2024-01-25T01:42:12;13.40;;;2.25;;
53521;SDS011;39398;48.382;9.802;2024-01-25T01:47:13;8.75;;;2.50;;
53521;SDS011;39398;48.382;9.802;2024-01-25T01:52:15;9.13;;;1.70;;
53521;SDS011;39398;48.382;9.802;2024-01-25T01:57:20;10.38;;;2.30;;
53521;SDS011;39398;48.382;9.802;2024-01-25T02:02:21;9.52;;;2.03;;
53521;SDS011;39398;48.382;9.802;2024-01-25T02:07:23;9.90;;;2.42;;
53521;SDS011;39398;48.382;9.802;2024-01-25T02:12:26;11.52;;;2.22;;
53521;SDS011;39398;48.382;9.802;2024-01-25T02:17:28;13.63;;;3.00;;
53521;SDS011;39398;48.382;9.802;2024-01-25T02:22:31;11.82;;;2.28;;
53521;SDS011;39398;48.382;9.802;2024-01-25T02:27:33;12.80;;;2.33;;
53521;SDS011;39398;48.382;9.802;2024-01-25T02:32:35;9.07;;;2.20;;
53521;SDS011;39398;48.382;9.802;2024-01-25T02:37:38;13.70;;;2.10;;
53521;SDS011;39398;48.382;9.802;2024-01-25T02:42:40;12.13;;;2.20;;
53521;SDS011;39398;48.382;9.802;2024-01-25T02:47:41;14.63;;;2.67;;
53521;SDS011;39398;48.382;9.802;2024-01-25T02:52:44;15.88;;;2.30;;
53521;SDS011;39398;48.382;9.802;2024-01-25T02:57:46;15.00;;;2.67;;
53521;SDS011;39398;48.382;9.802;2024-01-25T03:02:48;14.98;;;2.83;;
53521;SDS011;39398;48.382;9.802;2024-01-25T03:07:51;14.55;;;2.92;;
53521;SDS011;39398;48.382;9.802;2024-01-25T03:12:53;8.63;;;2.00;;
53521;SDS011;39398;48.382;9.802;2024-01-25T03:17:54;10.90;;;2.30;;
53521;SDS011;39398;48.382;9.802;2024-01-25T03:22:57;13.98;;;2.90;;
53521;SDS011;39398;48.382;9.802;2024-01-25T03:27:59;16.60;;;2.50;;
53521;SDS011;39398;48.382;9.802;2024-01-25T03:33:01;9.50;;;2.22;;
53521;SDS011;39398;48.382;9.802;2024-01-25T03:38:04;12.75;;;2.65;;
53521;SDS011;39398;48.382;9.802;2024-01-25T03:43:06;10.00;;;2.25;;
53521;SDS011;39398;48.382;9.802;2024-01-25T03:48:20;17.27;;;2.95;;
53521;SDS011;39398;48.382;9.802;2024-01-25T03:53:23;8.15;;;1.95;;
53521;SDS011;39398;48.382;9.802;2024-01-25T03:58:25;7.55;;;1.95;;
53521;SDS011;39398;48.382;9.802;2024-01-25T04:03:27;10.32;;;1.73;;
53521;SDS011;39398;48.382;9.802;2024-01-25T04:08:30;5.88;;;1.40;;
53521;SDS011;39398;48.382;9.802;2024-01-25T04:13:32;6.88;;;1.58;;
53521;SDS011;39398;48.382;9.802;2024-01-25T04:18:33;10.27;;;2.13;;
53521;SDS011;39398;48.382;9.802;2024-01-25T04:23:37;9.05;;;1.42;;
53521;SDS011;39398;48.382;9.802;2024-01-25T04:28:38;7.40;;;1.98;;
53521;SDS011;39398;48.382;9.802;2024-01-25T04:33:40;9.93;;;1.95;;
53521;SDS011;39398;48.382;9.802;2024-01-25T04:38:49;11.98;;;2.78;;
53521;SDS011;39398;48.382;9.802;2024-01-25T04:43:51;8.93;;;2.20;;
53521;SDS011;39398;48.382;9.802;2024-01-25T04:48:52;11.23;;;2.17;;
53521;SDS011;39398;48.382;9.802;2024-01-25T04:53:56;12.18;;;2.47;;
53521;SDS011;39398;48.382;9.802;2024-01-25T04:58:57;16.38;;;2.75;;
53521;SDS011;39398;48.382;9.802;2024-01-25T05:03:59;15.55;;;2.50;;
53521;SDS011;39398;48.382;9.802;2024-01-25T05:09:03;14.35;;;2.13;;
53521;SDS011;39398;48.382;9.802;2024-01-25T05:14:04;10.18;;;1.88;;
53521;SDS011;39398;48.382;9.802;2024-01-25T05:19:06;13.52;;;2.53;;
53521;SDS011;39398;48.382;9.802;2024-01-25T05:24:09;15.02;;;2.70;;
53521;SDS011;39398;48.382;9.802;2024-01-25T05:29:11;10.70;;;2.30;;
53521;SDS011;39398;48.382;9.802;2024-01-25T05:34:12;9.10;;;2.50;;
53521;SDS011;39398;48.382;9.802;2024-01-25T05:39:16;14.13;;;2.70;;
53521;SDS011;39398;48.382;9.802;2024-01-25T05:44:17;12.77;;;2.40;;
53521;SDS011;39398;48.382;9.802;2024-01-25T05:49:19;19.38;;;3.05;;
53521;SDS011;39398;48.382;9.802;2024-01-25T05:54:22;14.82;;;2.17;;
53521;SDS011;39398;48.382;9.802;2024-01-25T05:59:23;13.93;;;2.60;;
53521;SDS011;39398;48.382;9.802;2024-01-25T06:04:25;18.00;;;3.22;;
53521;SDS011;39398;48.382;9.802;2024-01-25T06:09:28;14.13;;;2.75;;
53521;SDS011;39398;48.382;9.802;2024-01-25T06:14:30;17.73;;;3.25;;
53521;SDS011;39398;48.382;9.802;2024-01-25T06:19:32;22.73;;;3.60;;
53521;SDS011;39398;48.382;9.802;2024-01-25T06:24:35;17.27;;;3.10;;
53521;SDS011;39398;48.382;9.802;2024-01-25T06:29:37;16.67;;;2.92;;
53521;SDS011;39398;48.382;9.802;2024-01-25T06:34:38;19.63;;;2.70;;
53521;SDS011;39398;48.382;9.802;2024-01-25T06:39:42;14.30;;;3.08;;
53521;SDS011;39398;48.382;9.802;2024-01-25T06:44:44;18.05;;;3.47;;
53521;SDS011;39398;48.382;9.802;2024-01-25T06:49:45;19.73;;;3.20;;
53521;SDS011;39398;48.382;9.802;2024-01-25T06:54:48;19.17;;;4.47;;
53521;SDS011;39398;48.382;9.802;2024-01-25T06:59:50;16.00;;;3.33;;
53521;SDS011;39398;48.382;9.802;2024-01-25T07:04:53;18.05;;;3.15;;
53521;SDS011;39398;48.382;9.802;2024-01-25T07:09:56;19.52;;;3.35;;
53521;SDS011;39398;48.382;9.802;2024-01-25T07:15:01;25.23;;;3.78;;
53521;SDS011;39398;48.382;9.802;2024-01-25T07:20:05;18.53;;;3.20;;
53521;SDS011;39398;48.382;9.802;2024-01-25T07:25:09;16.88;;;3.10;;
53521;SDS011;39398;48.382;9.802;2024-01-25T07:30:12;11.80;;;3.08;;
53521;SDS011;39398;48.382;9.802;2024-01-25T07:35:17;19.90;;;2.78;;
53521;SDS011;39398;48.382;9.802;2024-01-25T07:40:21;14.50;;;2.92;;
53521;SDS011;39398;48.382;9.802;2024-01-25T07:45:22;21.90;;;3.90;;
53521;SDS011;39398;48.382;9.802;2024-01-25T07:50:24;15.50;;;3.05;;
53521;SDS011;39398;48.382;9.802;2024-01-25T07:55:27;14.18;;;3.08;;
53521;SDS011;39398;48.382;9.802;2024-01-25T08:00:29;15.70;;;3.08;;
53521;SDS011;39398;48.382;9.802;2024-01-25T08:05:31;18.63;;;2.85;;
53521;SDS011;39398;48.382;9.802;2024-01-25T08:10:46;18.35;;;3.30;;
53521;SDS011;39398;48.382;9.802;2024-01-25T08:15:48;14.82;;;2.85;;
53521;SDS011;39398;48.382;9.802;2024-01-25T08:20:50;15.90;;;3.00;;
53521;SDS011;39398;48.382;9.802;2024-01-25T08:25:53;17.38;;;3.10;;
53521;SDS011;39398;48.382;9.802;2024-01-25T08:30:54;15.70;;;3.33;;
53521;SDS011;39398;48.382;9.802;2024-01-25T08:35:56;16.65;;;2.90;;
53521;SDS011;39398;48.382;9.802;2024-01-25T08:40:59;15.18;;;2.60;;
53521;SDS011;39398;48.382;9.802;2024-01-25T08:46:01;15.70;;;2.80;;
53521;SDS011;39398;48.382;9.802;2024-01-25T08:51:03;14.55;;;2.63;;
53521;SDS011;39398;48.382;9.802;2024-01-25T08:56:06;16.77;;;3.95;;
53521;SDS011;39398;48.382;9.802;2024-01-25T09:01:08;15.02;;;2.50;;
53521;SDS011;39398;48.382;9.802;2024-01-25T09:06:10;13.43;;;3.28;;
53521;SDS011;39398;48.382;9.802;2024-01-25T09:11:13;11.68;;;2.65;;
53521;SDS011;39398;48.382;9.802;2024-01-25T09:16:15;10.38;;;2.83;;
53521;SDS011;39398;48.382;9.802;2024-01-25T09:21:17;17.48;;;3.45;;
53521;SDS011;39398;48.382;9.802;2024-01-25T09:26:20;17.08;;;3.17;;
53521;SDS011;39398;48.382;9.802;2024-01-25T09:31:22;12.85;;;3.45;;
53521;SDS011;39398;48.382;9.802;2024-01-25T09:36:24;12.02;;;2.58;;
53521;SDS011;39398;48.382;9.802;2024-01-25T09:41:27;16.58;;;3.45;;
53521;SDS011;39398;48.382;9.802;2024-01-25T09:46:29;11.18;;;2.60;;
53521;SDS011;39398;48.382;9.802;2024-01-25T09:51:33;12.48;;;2.78;;
53521;SDS011;39398;48.382;9.802;2024-01-25T09:56:39;14.68;;;3.25;;
53521;SDS011;39398;48.382;9.802;2024-01-25T10:01:42;13.77;;;2.67;;
53521;SDS011;39398;48.382;9.802;2024-01-25T10:06:46;12.43;;;2.50;;
53521;SDS011;39398;48.382;9.802;2024-01-25T10:11:49;16.73;;;3.15;;
53521;SDS011;39398;48.382;9.802;2024-01-25T10:17:04;12.90;;;3.13;;
53521;SDS011;39398;48.382;9.802;2024-01-25T10:22:06;13.50;;;2.85;;
53521;SDS011;39398;48.382;9.802;2024-01-25T10:27:10;12.85;;;2.90;;
53521;SDS011;39398;48.382;9.802;2024-01-25T10:32:12;12.35;;;3.55;;
53521;SDS011;39398;48.382;9.802;2024-01-25T10:37:14;13.13;;;3.22;;
53521;SDS011;39398;48.382;9.802;2024-01-25T10:42:17;14.20;;;3.08;;
53521;SDS011;39398;48.382;9.802;2024-01-25T10:47:19;16.70;;;3.03;;
53521;SDS011;39398;48.382;9.802;2024-01-25T10:52:21;14.93;;;3.00;;
53521;SDS011;39398;48.382;9.802;2024-01-25T10:57:25;14.20;;;2.80;;
53521;SDS011;39398;48.382;9.802;2024-01-25T11:02:26;13.63;;;3.05;;
53521;SDS011;39398;48.382;9.802;2024-01-25T11:07:29;13.95;;;3.25;;
53521;SDS011;39398;48.382;9.802;2024-01-25T11:12:55;15.73;;;3.30;;
53521;SDS011;39398;48.382;9.802;2024-01-25T11:17:58;15.80;;;3.05;;
53521;SDS011;39398;48.382;9.802;2024-01-25T11:23:01;14.32;;;2.90;;
53521;SDS011;39398;48.382;9.802;2024-01-25T11:28:06;12.52;;;2.67;;
53521;SDS011;39398;48.382;9.802;2024-01-25T11:33:08;15.77;;;3.13;;
53521;SDS011;39398;48.382;9.802;2024-01-25T11:38:10;16.40;;;2.67;;
53521;SDS011;39398;48.382;9.802;2024-01-25T11:43:14;13.00;;;2.45;;
53521;SDS011;39398;48.382;9.802;2024-01-25T11:48:17;13.23;;;3.05;;
53521;SDS011;39398;48.382;9.802;2024-01-25T11:53:19;11.35;;;2.38;;
53521;SDS011;39398;48.382;9.802;2024-01-25T11:58:22;16.42;;;5.05;;
53521;SDS011;39398;48.382;9.802;2024-01-25T12:03:25;10.98;;;2.67;;
53521;SDS011;39398;48.382;9.802;2024-01-25T12:08:27;11.75;;;2.33;;
53521;SDS011;39398;48.382;9.802;2024-01-25T12:13:32;8.82;;;2.25;;
53521;SDS011;39398;48.382;9.802;2024-01-25T12:18:34;8.98;;;2.05;;
53521;SDS011;39398;48.382;9.802;2024-01-25T12:23:43;13.20;;;2.80;;
53521;SDS011;39398;48.382;9.802;2024-01-25T12:33:48;12.57;;;3.40;;
53521;SDS011;39398;48.382;9.802;2024-01-25T12:38:51;10.60;;;3.38;;
53521;SDS011;39398;48.382;9.802;2024-01-25T12:43:57;13.40;;;4.35;;
53521;SDS011;39398;48.382;9.802;2024-01-25T12:48:59;8.35;;;2.50;;
53521;SDS011;39398;48.382;9.802;2024-01-25T12:54:01;13.57;;;3.75;;
53521;SDS011;39398;48.382;9.802;2024-01-25T12:59:04;15.75;;;4.35;;
53521;SDS011;39398;48.382;9.802;2024-01-25T13:04:06;10.77;;;2.85;;
53521;SDS011;39398;48.382;9.802;2024-01-25T13:09:08;10.13;;;3.13;;
53521;SDS011;39398;48.382;9.802;2024-01-25T13:14:11;7.72;;;2.40;;
53521;SDS011;39398;48.382;9.802;2024-01-25T13:19:12;10.27;;;2.58;;
53521;SDS011;39398;48.382;9.802;2024-01-25T13:24:14;9.02;;;2.47;;
53521;SDS011;39398;48.382;9.802;2024-01-25T13:29:17;19.08;;;6.43;;
53521;SDS011;39398;48.382;9.802;2024-01-25T13:34:19;9.63;;;2.15;;
53521;SDS011;39398;48.382;9.802;2024-01-25T13:39:20;6.90;;;1.50;;
53521;SDS011;39398;48.382;9.802;2024-01-25T13:44:23;7.32;;;2.25;;
53521;SDS011;39398;48.382;9.802;2024-01-25T13:49:25;10.80;;;3.25;;
53521;SDS011;39398;48.382;9.802;2024-01-25T13:54:26;11.23;;;3.55;;
53521;SDS011;39398;48.382;9.802;2024-01-25T13:59:29;22.52;;;8.23;;
53521;SDS011;39398;48.382;9.802;2024-01-25T14:04:31;8.43;;;2.00;;
53521;SDS011;39398;48.382;9.802;2024-01-25T14:09:33;7.38;;;1.60;;
53521;SDS011;39398;48.382;9.802;2024-01-25T14:14:37;11.38;;;3.88;;
53521;SDS011;39398;48.382;9.802;2024-01-25T14:19:39;11.85;;;3.40;;
53521;SDS011;39398;48.382;9.802;2024-01-25T14:24:41;17.65;;;6.50;;
53521;SDS011;39398;48.382;9.802;2024-01-25T14:29:45;10.48;;;4.00;;
53521;SDS011;39398;48.382;9.802;2024-01-25T14:34:46;8.40;;;3.85;;
53521;SDS011;39398;48.382;9.802;2024-01-25T14:39:48;13.57;;;3.03;;
53521;SDS011;39398;48.382;9.802;2024-01-25T14:45:10;9.20;;;2.40;;
53521;SDS011;39398;48.382;9.802;2024-01-25T14:50:12;7.78;;;2.42;;
53521;SDS011;39398;48.382;9.802;2024-01-25T14:55:14;6.50;;;1.77;;
53521;SDS011;39398;48.382;9.802;2024-01-25T15:00:20;7.93;;;1.83;;
53521;SDS011;39398;48.382;9.802;2024-01-25T15:05:22;6.25;;;1.60;;
53521;SDS011;39398;48.382;9.802;2024-01-25T15:10:24;7.68;;;1.77;;
53521;SDS011;39398;48.382;9.802;2024-01-25T15:15:27;10.00;;;2.40;;
53521;SDS011;39398;48.382;9.802;2024-01-25T15:20:28;6.65;;;1.92;;
53521;SDS011;39398;48.382;9.802;2024-01-25T15:25:30;11.80;;;2.35;;
53521;SDS011;39398;48.382;9.802;2024-01-25T15:30:33;8.75;;;2.97;;
53521;SDS011;39398;48.382;9.802;2024-01-25T15:35:35;9.90;;;3.80;;
53521;SDS011;39398;48.382;9.802;2024-01-25T15:40:36;18.98;;;4.32;;
53521;SDS011;39398;48.382;9.802;2024-01-25T15:45:39;12.80;;;2.83;;
53521;SDS011;39398;48.382;9.802;2024-01-25T15:50:42;10.38;;;2.63;;
53521;SDS011;39398;48.382;9.802;2024-01-25T15:55:44;11.40;;;2.83;;
53521;SDS011;39398;48.382;9.802;2024-01-25T16:00:47;11.35;;;2.88;;
53521;SDS011;39398;48.382;9.802;2024-01-25T16:05:49;16.77;;;3.90;;
53521;SDS011;39398;48.382;9.802;2024-01-25T16:10:51;19.70;;;4.38;;
53521;SDS011;39398;48.382;9.802;2024-01-25T16:15:54;16.00;;;3.88;;
53521;SDS011;39398;48.382;9.802;2024-01-25T16:20:55;12.75;;;3.83;;
53521;SDS011;39398;48.382;9.802;2024-01-25T16:25:57;17.77;;;4.38;;
53521;SDS011;39398;48.382;9.802;2024-01-25T16:31:00;12.23;;;3.97;;
53521;SDS011;39398;48.382;9.802;2024-01-25T16:36:02;14.55;;;2.88;;
53521;SDS011;39398;48.382;9.802;2024-01-25T16:41:04;7.18;;;2.17;;
53521;SDS011;39398;48.382;9.802;2024-01-25T16:46:08;4.35;;;1.58;;
53521;SDS011;39398;48.382;9.802;2024-01-25T16:51:09;7.50;;;1.63;;
53521;SDS011;39398;48.382;9.802;2024-01-25T16:56:11;9.50;;;1.70;;
53521;SDS011;39398;48.382;9.802;2024-01-25T17:01:14;7.07;;;1.70;;
53521;SDS011;39398;48.382;9.802;2024-01-25T17:06:16;4.45;;;1.70;;
53521;SDS011;39398;48.382;9.802;2024-01-25T17:11:18;5.90;;;1.80;;
53521;SDS011;39398;48.382;9.802;2024-01-25T17:16:22;8.38;;;1.88;;
53521;SDS011;39398;48.382;9.802;2024-01-25T17:21:24;6.32;;;1.48;;
53521;SDS011;39398;48.382;9.802;2024-01-25T17:26:25;6.55;;;1.77;;
53521;SDS011;39398;48.382;9.802;2024-01-25T17:31:28;6.20;;;1.48;;
53521;SDS011;39398;48.382;9.802;2024-01-25T17:36:30;4.22;;;1.50;;
53521;SDS011;39398;48.382;9.802;2024-01-25T17:41:32;4.25;;;1.48;;
53521;SDS011;39398;48.382;9.802;2024-01-25T17:46:35;7.10;;;1.58;;
53521;SDS011;39398;48.382;9.802;2024-01-25T17:51:36;5.80;;;1.83;;
53521;SDS011;39398;48.382;9.802;2024-01-25T17:56:38;4.85;;;1.50;;
53521;SDS011;39398;48.382;9.802;2024-01-25T18:01:41;4.18;;;1.55;;
53521;SDS011;39398;48.382;9.802;2024-01-25T18:06:43;6.40;;;1.50;;
53521;SDS011;39398;48.382;9.802;2024-01-25T18:11:44;4.72;;;1.60;;
53521;SDS011;39398;48.382;9.802;2024-01-25T18:16:48;6.40;;;1.58;;
53521;SDS011;39398;48.382;9.802;2024-01-25T18:21:49;2.72;;;1.20;;
53521;SDS011;39398;48.382;9.802;2024-01-25T18:26:51;2.60;;;1.38;;
53521;SDS011;39398;48.382;9.802;2024-01-25T18:31:54;3.38;;;1.40;;
53521;SDS011;39398;48.382;9.802;2024-01-25T18:36:56;3.40;;;1.42;;
53521;SDS011;39398;48.382;9.802;2024-01-25T18:41:57;6.18;;;1.48;;
53521;SDS011;39398;48.382;9.802;2024-01-25T18:47:00;2.05;;;1.40;;
53521;SDS011;39398;48.382;9.802;2024-01-25T18:52:03;6.38;;;2.00;;
53521;SDS011;39398;48.382;9.802;2024-01-25T18:57:05;5.97;;;1.65;;
53521;SDS011;39398;48.382;9.802;2024-01-25T19:02:09;5.95;;;2.78;;
53521;SDS011;39398;48.382;9.802;2024-01-25T19:07:12;7.60;;;3.90;;
53521;SDS011;39398;48.382;9.802;2024-01-25T19:12:14;2.83;;;1.85;;
53521;SDS011;39398;48.382;9.802;2024-01-25T19:17:17;5.55;;;2.97;;
53521;SDS011;39398;48.382;9.802;2024-01-25T19:22:19;5.57;;;2.70;;
53521;SDS011;39398;48.382;9.802;2024-01-25T19:27:21;11.80;;;3.67;;
53521;SDS011;39398;48.382;9.802;2024-01-25T19:32:24;7.78;;;4.10;;
53521;SDS011;39398;48.382;9.802;2024-01-25T19:37:25;59.03;;;6.90;;
53521;SDS011;39398;48.382;9.802;2024-01-25T19:42:27;68.40;;;7.82;;
53521;SDS011;39398;48.382;9.802;2024-01-25T19:47:30;106.53;;;11.15;;
53521;SDS011;39398;48.382;9.802;2024-01-25T19:52:32;274.73;;;17.50;;
53521;SDS011;39398;48.382;9.802;2024-01-25T19:57:33;326.35;;;19.70;;
53521;SDS011;39398;48.382;9.802;2024-01-25T20:02:37;456.95;;;27.83;;
53521;SDS011;39398;48.382;9.802;2024-01-25T20:07:40;423.45;;;26.70;;
53521;SDS011;39398;48.382;9.802;2024-01-25T20:12:42;379.60;;;24.50;;
53521;SDS011;39398;48.382;9.802;2024-01-25T20:17:45;252.32;;;19.98;;
53521;SDS011;39398;48.382;9.802;2024-01-25T20:22:46;241.85;;;17.90;;
53521;SDS011;39398;48.382;9.802;2024-01-25T20:27:48;155.10;;;17.10;;
53521;SDS011;39398;48.382;9.802;2024-01-25T20:32:51;26.20;;;13.13;;
53521;SDS011;39398;48.382;9.802;2024-01-25T20:37:53;20.02;;;10.23;;
53521;SDS011;39398;48.382;9.802;2024-01-25T20:42:54;20.02;;;8.75;;
53521;SDS011;39398;48.382;9.802;2024-01-25T20:47:57;10.30;;;7.03;;
53521;SDS011;39398;48.382;9.802;2024-01-25T20:53:00;7.55;;;4.95;;
53521;SDS011;39398;48.382;9.802;2024-01-25T20:58:01;9.02;;;5.07;;
53521;SDS011;39398;48.382;9.802;2024-01-25T21:03:05;4.82;;;3.30;;
53521;SDS011;39398;48.382;9.802;2024-01-25T21:08:08;5.65;;;3.60;;
53521;SDS011;39398;48.382;9.802;2024-01-25T21:13:11;5.93;;;3.20;;
53521;SDS011;39398;48.382;9.802;2024-01-25T21:18:15;3.63;;;2.88;;
53521;SDS011;39398;48.382;9.802;2024-01-25T21:23:17;2.70;;;2.47;;
53521;SDS011;39398;48.382;9.802;2024-01-25T21:28:18;4.32;;;3.38;;
53521;SDS011;39398;48.382;9.802;2024-01-25T21:33:21;5.32;;;3.67;;
53521;SDS011;39398;48.382;9.802;2024-01-25T21:38:23;4.47;;;3.65;;
53521;SDS011;39398;48.382;9.802;2024-01-25T21:43:25;4.65;;;3.40;;
53521;SDS011;39398;48.382;9.802;2024-01-25T21:48:28;4.03;;;3.38;;
53521;SDS011;39398;48.382;9.802;2024-01-25T21:53:31;2.80;;;2.60;;
53521;SDS011;39398;48.382;9.802;2024-01-25T21:58:32;3.38;;;3.00;;
53521;SDS011;39398;48.382;9.802;2024-01-25T22:03:35;4.20;;;3.35;;
53521;SDS011;39398;48.382;9.802;2024-01-25T22:08:37;3.03;;;2.78;;
53521;SDS011;39398;48.382;9.802;2024-01-25T22:13:40;3.40;;;3.10;;
53521;SDS011;39398;48.382;9.802;2024-01-25T22:18:43;3.47;;;3.15;;
53521;SDS011;39398;48.382;9.802;2024-01-25T22:23:45;3.13;;;2.78;;
53521;SDS011;39398;48.382;9.802;2024-01-25T22:28:47;4.65;;;3.80;;
53521;SDS011;39398;48.382;9.802;2024-01-25T22:33:50;5.07;;;4.32;;
53521;SDS011;39398;48.382;9.802;2024-01-25T22:38:52;5.40;;;3.90;;
53521;SDS011;39398;48.382;9.802;2024-01-25T22:43:54;4.05;;;2.40;;
53521;SDS011;39398;48.382;9.802;2024-01-25T22:48:57;2.13;;;1.92;;
53521;SDS011;39398;48.382;9.802;2024-01-25T22:53:59;1.83;;;1.67;;
53521;SDS011;39398;48.382;9.802;2024-01-25T22:59:01;2.88;;;1.88;;
53521;SDS011;39398;48.382;9.802;2024-01-25T23:04:04;2.92;;;2.60;;
53521;SDS011;39398;48.382;9.802;2024-01-25T23:09:06;5.55;;;3.95;;
53521;SDS011;39398;48.382;9.802;2024-01-25T23:14:07;5.60;;;4.18;;
53521;SDS011;39398;48.382;9.802;2024-01-25T23:19:10;5.70;;;4.50;;
53521;SDS011;39398;48.382;9.802;2024-01-25T23:24:12;8.07;;;5.30;;
53521;SDS011;39398;48.382;9.802;2024-01-25T23:29:14;7.22;;;4.68;;
53521;SDS011;39398;48.382;9.802;2024-01-25T23:34:17;6.30;;;4.07;;
53521;SDS011;39398;48.382;9.802;2024-01-25T23:39:19;2.78;;;2.47;;
53521;SDS011;39398;48.382;9.802;2024-01-25T23:44:21;3.67;;;2.55;;
53521;SDS011;39398;48.382;9.802;2024-01-25T23:49:24;7.20;;;5.10;;
53521;SDS011;39398;48.382;9.802;2024-01-25T23:54:26;4.55;;;3.92;;
53521;SDS011;39398;48.382;9.802;2024-01-25T23:59:28;4.63;;;3.40;;
